PWSweather.com
Personal Weather Stations
Station Observations
KNCCHINA3
Red Tractor Trail, China Grove, NC 28023

Red Tractor TrailChina Grove, NC 28023

Lat: 35.59751, Lon: -80.60201

Elevation: 800

Station Type: Oregon Scientific WMR 968

http://www.joesweathergarage.com

High Low Average
Temperature 64.2°F17.9°C 36.2°F2.3°C 50.5°F10.3°C
Dew Point 52.5°F11.4°C 16.7°F-8.5°C 35.3°F1.8°C
Winds 13.1 mph 21.1 kmh 2.9 mph 4.7 kmh 7.0 mph W11.3 kmh W
Wind Gusts 28.6 mph46.0 kmh 5.4 mph8.7 kmh 13.0 mph20.9 kmh
Humidity 98% 37% 59%
Pressure 29.91 in1012.9 mb 29.59 in1002.0 mb -
Precipitation 0.00 in0.0 mm - -
Hour Temp Dew Point Humidity Winds Wind Gusts Pressure Precip Precip Rate Daily Precip Total
12:00 AM 57.8°F14.3°C 57.1°F13.9°C 98% 5.5 mph SSW8.9 kmh SSW 8.0 mph12.9 kmh 29.59 in1002.0 mb 0.00 in0.0 mm 0.00 in0.0 mm 0.00 in0.0 mm
12:05 AM 57.8°F14.3°C 57.1°F13.9°C 98% 4.4 mph S7.1 kmh S 8.6 mph13.8 kmh 29.59 in1002.0 mb 0.00 in0.0 mm 0.00 in0.0 mm 0.00 in0.0 mm
12:10 AM 57.5°F14.2°C 56.8°F13.8°C 98% 6.2 mph WSW10.0 kmh WSW 8.6 mph13.8 kmh 29.62 in1003.0 mb 0.00 in0.0 mm 0.00 in0.0 mm 0.00 in0.0 mm
12:15 AM 57.3°F14.1°C 56.3°F13.5°C 97% 6.0 mph WSW9.7 kmh WSW 11.2 mph18.0 kmh 29.62 in1003.0 mb 0.00 in0.0 mm 0.00 in0.0 mm 0.00 in0.0 mm
12:20 AM 56.6°F13.7°C 55.0°F12.8°C 95% 7.0 mph SSW11.3 kmh SSW 11.2 mph18.0 kmh 29.62 in1003.0 mb 0.00 in0.0 mm 0.00 in0.0 mm 0.00 in0.0 mm
12:25 AM 56.0°F13.3°C 53.9°F12.2°C 93% 6.9 mph WSW11.1 kmh WSW 11.2 mph18.0 kmh 29.59 in1002.0 mb 0.00 in0.0 mm 0.00 in0.0 mm 0.00 in0.0 mm
12:30 AM 55.7°F13.2°C 53.0°F11.7°C 91% 7.0 mph SSW11.3 kmh SSW 12.6 mph20.3 kmh 29.59 in1002.0 mb 0.00 in0.0 mm 0.00 in0.0 mm 0.00 in0.0 mm
12:35 AM 54.9°F12.7°C 52.5°F11.4°C 92% 5.5 mph SW8.9 kmh SW 12.6 mph20.3 kmh 29.59 in1002.0 mb 0.00 in0.0 mm 0.00 in0.0 mm 0.00 in0.0 mm
12:40 AM 54.4°F12.4°C 52.3°F11.3°C 93% 7.3 mph WSW11.7 kmh WSW 12.0 mph19.3 kmh 29.59 in1002.0 mb 0.00 in0.0 mm 0.00 in0.0 mm 0.00 in0.0 mm
12:46 AM 54.0°F12.2°C 51.9°F11.1°C 93% 8.4 mph SSW13.5 kmh SSW 12.6 mph20.3 kmh 29.59 in1002.0 mb 0.00 in0.0 mm 0.00 in0.0 mm 0.00 in0.0 mm
12:51 AM 53.9°F12.2°C 52.1°F11.2°C 94% 6.2 mph SSW10.0 kmh SSW 12.6 mph20.3 kmh 29.59 in1002.0 mb 0.00 in0.0 mm 0.00 in0.0 mm 0.00 in0.0 mm
12:58 AM 53.7°F12.1°C 52.2°F11.2°C 95% 6.8 mph SW10.9 kmh SW 17.0 mph27.4 kmh 29.62 in1003.0 mb 0.00 in0.0 mm 0.00 in0.0 mm 0.00 in0.0 mm
01:03 AM 53.7°F12.1°C 52.4°F11.3°C 96% 6.3 mph SW10.1 kmh SW 17.0 mph27.4 kmh 29.62 in1003.0 mb 0.00 in0.0 mm 0.00 in0.0 mm 0.00 in0.0 mm
01:08 AM 53.5°F11.9°C 52.5°F11.4°C 97% 7.1 mph WSW11.4 kmh WSW 12.0 mph19.3 kmh 29.62 in1003.0 mb 0.00 in0.0 mm 0.00 in0.0 mm 0.00 in0.0 mm
01:13 AM 53.1°F11.7°C 51.9°F11.1°C 96% 7.0 mph SW11.3 kmh SW 11.6 mph18.7 kmh 29.62 in1003.0 mb 0.00 in0.0 mm 0.00 in0.0 mm 0.00 in0.0 mm
01:18 AM 53.0°F11.7°C 52.0°F11.1°C 97% 6.2 mph SW10.0 kmh SW 11.6 mph18.7 kmh 29.62 in1003.0 mb 0.00 in0.0 mm 0.00 in0.0 mm 0.00 in0.0 mm
01:23 AM 53.0°F11.7°C 52.0°F11.1°C 97% 5.4 mph S8.7 kmh S 10.8 mph17.4 kmh 29.62 in1003.0 mb 0.00 in0.0 mm 0.00 in0.0 mm 0.00 in0.0 mm
01:28 AM 52.8°F11.6°C 51.8°F11.0°C 97% 5.3 mph SSW8.5 kmh SSW 12.6 mph20.3 kmh 29.62 in1003.0 mb 0.00 in0.0 mm 0.00 in0.0 mm 0.00 in0.0 mm
01:33 AM 52.6°F11.4°C 51.4°F10.8°C 96% 6.7 mph SW10.8 kmh SW 12.6 mph20.3 kmh 29.62 in1003.0 mb 0.00 in0.0 mm 0.00 in0.0 mm 0.00 in0.0 mm
01:40 AM 52.4°F11.3°C 50.9°F10.5°C 95% 5.6 mph SW9.0 kmh SW 12.0 mph19.3 kmh 29.65 in1004.1 mb 0.00 in0.0 mm 0.00 in0.0 mm 0.00 in0.0 mm
01:45 AM 52.1°F11.2°C 50.3°F10.2°C 94% 6.5 mph SW10.5 kmh SW 9.4 mph15.1 kmh 29.65 in1004.1 mb 0.00 in0.0 mm 0.00 in0.0 mm 0.00 in0.0 mm
01:52 AM 52.1°F11.2°C 50.6°F10.3°C 95% 6.6 mph SW10.6 kmh SW 9.4 mph15.1 kmh 29.62 in1003.0 mb 0.00 in0.0 mm 0.00 in0.0 mm 0.00 in0.0 mm
01:57 AM 51.9°F11.1°C 49.8°F9.9°C 93% 7.1 mph SW11.4 kmh SW 10.8 mph17.4 kmh 29.62 in1003.0 mb 0.00 in0.0 mm 0.00 in0.0 mm 0.00 in0.0 mm
02:02 AM 51.7°F10.9°C 49.9°F9.9°C 94% 5.2 mph WSW8.4 kmh WSW 10.8 mph17.4 kmh 29.62 in1003.0 mb 0.00 in0.0 mm 0.00 in0.0 mm 0.00 in0.0 mm
02:07 AM 51.5°F10.8°C 50.0°F10.0°C 95% 6.0 mph SSW9.7 kmh SSW 8.0 mph12.9 kmh 29.59 in1002.0 mb 0.00 in0.0 mm 0.00 in0.0 mm 0.00 in0.0 mm
02:12 AM 51.5°F10.8°C 50.0°F10.0°C 95% 5.2 mph SSW8.4 kmh SSW 12.0 mph19.3 kmh 29.59 in1002.0 mb 0.00 in0.0 mm 0.00 in0.0 mm 0.00 in0.0 mm
02:17 AM 51.3°F10.7°C 49.2°F9.6°C 93% 7.6 mph SW12.2 kmh SW 12.0 mph19.3 kmh 29.59 in1002.0 mb 0.00 in0.0 mm 0.00 in0.0 mm 0.00 in0.0 mm
02:22 AM 51.2°F10.7°C 49.4°F9.7°C 94% 5.6 mph WSW9.0 kmh WSW 11.6 mph18.7 kmh 29.59 in1002.0 mb 0.00 in0.0 mm 0.00 in0.0 mm 0.00 in0.0 mm
02:27 AM 51.0°F10.6°C 48.9°F9.4°C 93% 7.2 mph SSW11.6 kmh SSW 11.6 mph18.7 kmh 29.59 in1002.0 mb 0.00 in0.0 mm 0.00 in0.0 mm 0.00 in0.0 mm
02:32 AM 50.8°F10.4°C 48.7°F9.3°C 93% 7.3 mph SW11.7 kmh SW 11.6 mph18.7 kmh 29.59 in1002.0 mb 0.00 in0.0 mm 0.00 in0.0 mm 0.00 in0.0 mm
02:37 AM 50.6°F10.3°C 48.2°F9.0°C 92% 7.1 mph W11.4 kmh W 11.2 mph18.0 kmh 29.62 in1003.0 mb 0.00 in0.0 mm 0.00 in0.0 mm 0.00 in0.0 mm
02:42 AM 50.6°F10.3°C 48.2°F9.0°C 92% 4.8 mph SW7.7 kmh SW 11.2 mph18.0 kmh 29.62 in1003.0 mb 0.00 in0.0 mm 0.00 in0.0 mm 0.00 in0.0 mm
02:47 AM 50.6°F10.3°C 48.8°F9.3°C 94% 7.8 mph SW12.6 kmh SW 11.2 mph18.0 kmh 29.62 in1003.0 mb 0.00 in0.0 mm 0.00 in0.0 mm 0.00 in0.0 mm
02:52 AM 50.4°F10.2°C 48.3°F9.1°C 93% 4.9 mph WSW7.9 kmh WSW 13.0 mph20.9 kmh 29.62 in1003.0 mb 0.00 in0.0 mm 0.00 in0.0 mm 0.00 in0.0 mm
02:57 AM 50.3°F10.2°C 48.2°F9.0°C 93% 5.4 mph SW8.7 kmh SW 13.0 mph20.9 kmh 29.62 in1003.0 mb 0.00 in0.0 mm 0.00 in0.0 mm 0.00 in0.0 mm
03:02 AM 50.1°F10.1°C 48.0°F8.9°C 93% 5.9 mph SW9.5 kmh SW 8.6 mph13.8 kmh 29.62 in1003.0 mb 0.00 in0.0 mm 0.00 in0.0 mm 0.00 in0.0 mm
03:07 AM 50.1°F10.1°C 47.7°F8.7°C 92% 5.5 mph SW8.9 kmh SW 13.0 mph20.9 kmh 29.62 in1003.0 mb 0.00 in0.0 mm 0.00 in0.0 mm 0.00 in0.0 mm
03:12 AM 49.9°F9.9°C 47.8°F8.8°C 93% 5.5 mph WNW8.9 kmh WNW 13.0 mph20.9 kmh 29.62 in1003.0 mb 0.00 in0.0 mm 0.00 in0.0 mm 0.00 in0.0 mm
03:17 AM 49.9°F9.9°C 47.8°F8.8°C 93% 5.7 mph WSW9.2 kmh WSW 8.0 mph12.9 kmh 29.62 in1003.0 mb 0.00 in0.0 mm 0.00 in0.0 mm 0.00 in0.0 mm
03:22 AM 49.9°F9.9°C 48.1°F8.9°C 94% 4.3 mph W6.9 kmh W 10.8 mph17.4 kmh 29.62 in1003.0 mb 0.00 in0.0 mm 0.00 in0.0 mm 0.00 in0.0 mm
03:27 AM 49.7°F9.8°C 47.9°F8.8°C 94% 7.3 mph SW11.7 kmh SW 13.0 mph20.9 kmh 29.62 in1003.0 mb 0.00 in0.0 mm 0.00 in0.0 mm 0.00 in0.0 mm
03:32 AM 49.7°F9.8°C 47.9°F8.8°C 94% 4.5 mph SW7.2 kmh SW 13.0 mph20.9 kmh 29.62 in1003.0 mb 0.00 in0.0 mm 0.00 in0.0 mm 0.00 in0.0 mm
03:37 AM 49.5°F9.7°C 48.0°F8.9°C 95% 5.5 mph WSW8.9 kmh WSW 8.0 mph12.9 kmh 29.62 in1003.0 mb 0.00 in0.0 mm 0.00 in0.0 mm 0.00 in0.0 mm
03:42 AM 49.4°F9.7°C 47.6°F8.7°C 94% 5.6 mph W9.0 kmh W 11.2 mph18.0 kmh 29.62 in1003.0 mb 0.00 in0.0 mm 0.00 in0.0 mm 0.00 in0.0 mm
03:47 AM 49.4°F9.7°C 47.9°F8.8°C 95% 5.1 mph SW8.2 kmh SW 11.2 mph18.0 kmh 29.62 in1003.0 mb 0.00 in0.0 mm 0.00 in0.0 mm 0.00 in0.0 mm
03:52 AM 49.4°F9.7°C 47.9°F8.8°C 95% 6.2 mph SW10.0 kmh SW 9.4 mph15.1 kmh 29.62 in1003.0 mb 0.00 in0.0 mm 0.00 in0.0 mm 0.00 in0.0 mm
03:57 AM 49.2°F9.6°C 47.7°F8.7°C 95% 5.3 mph SW8.5 kmh SW 9.4 mph15.1 kmh 29.62 in1003.0 mb 0.00 in0.0 mm 0.00 in0.0 mm 0.00 in0.0 mm
04:03 AM 49.2°F9.6°C 47.7°F8.7°C 95% 5.7 mph WSW9.2 kmh WSW 8.0 mph12.9 kmh 29.62 in1003.0 mb 0.00 in0.0 mm 0.00 in0.0 mm 0.00 in0.0 mm
04:08 AM 49.2°F9.6°C 47.7°F8.7°C 95% 4.9 mph SW7.9 kmh SW 9.4 mph15.1 kmh 29.62 in1003.0 mb 0.00 in0.0 mm 0.00 in0.0 mm 0.00 in0.0 mm
04:13 AM 49.0°F9.4°C 47.5°F8.6°C 95% 6.1 mph WSW9.8 kmh WSW 9.4 mph15.1 kmh 29.62 in1003.0 mb 0.00 in0.0 mm 0.00 in0.0 mm 0.00 in0.0 mm
04:18 AM 49.0°F9.4°C 47.5°F8.6°C 95% 6.2 mph WSW10.0 kmh WSW 7.6 mph12.2 kmh 29.62 in1003.0 mb 0.00 in0.0 mm 0.00 in0.0 mm 0.00 in0.0 mm
04:23 AM 49.0°F9.4°C 47.5°F8.6°C 95% 6.6 mph WSW10.6 kmh WSW 12.6 mph20.3 kmh 29.65 in1004.1 mb 0.00 in0.0 mm 0.00 in0.0 mm 0.00 in0.0 mm
04:28 AM 49.0°F9.4°C 47.5°F8.6°C 95% 5.5 mph SW8.9 kmh SW 12.6 mph20.3 kmh 29.65 in1004.1 mb 0.00 in0.0 mm 0.00 in0.0 mm 0.00 in0.0 mm
04:34 AM 48.8°F9.3°C 47.3°F8.5°C 95% 5.3 mph WSW8.5 kmh WSW 8.0 mph12.9 kmh 29.65 in1004.1 mb 0.00 in0.0 mm 0.00 in0.0 mm 0.00 in0.0 mm
04:39 AM 48.8°F9.3°C 47.6°F8.7°C 96% 2.9 mph W4.7 kmh W 8.0 mph12.9 kmh 29.59 in1002.0 mb 0.00 in0.0 mm 0.00 in0.0 mm 0.00 in0.0 mm
04:44 AM 48.8°F9.3°C 47.6°F8.7°C 96% 4.1 mph WSW6.6 kmh WSW 5.4 mph8.7 kmh 29.59 in1002.0 mb 0.00 in0.0 mm 0.00 in0.0 mm 0.00 in0.0 mm
04:49 AM 48.8°F9.3°C 47.6°F8.7°C 96% 4.2 mph WSW6.8 kmh WSW 6.2 mph10.0 kmh 29.59 in1002.0 mb 0.00 in0.0 mm 0.00 in0.0 mm 0.00 in0.0 mm
04:55 AM 48.8°F9.3°C 47.6°F8.7°C 96% 4.6 mph WSW7.4 kmh WSW 6.8 mph10.9 kmh 29.59 in1002.0 mb 0.00 in0.0 mm 0.00 in0.0 mm 0.00 in0.0 mm
05:00 AM 48.8°F9.3°C 47.6°F8.7°C 96% 6.3 mph WSW10.1 kmh WSW 8.0 mph12.9 kmh 29.59 in1002.0 mb 0.00 in0.0 mm 0.00 in0.0 mm 0.00 in0.0 mm
05:05 AM 48.8°F9.3°C 47.6°F8.7°C 96% 4.3 mph WSW6.9 kmh WSW 8.0 mph12.9 kmh 29.59 in1002.0 mb 0.00 in0.0 mm 0.00 in0.0 mm 0.00 in0.0 mm
05:10 AM 48.8°F9.3°C 47.6°F8.7°C 96% 3.9 mph W6.3 kmh W 8.0 mph12.9 kmh 29.59 in1002.0 mb 0.00 in0.0 mm 0.00 in0.0 mm 0.00 in0.0 mm
05:15 AM 48.8°F9.3°C 47.6°F8.7°C 96% 5.3 mph WSW8.5 kmh WSW 7.2 mph11.6 kmh 29.59 in1002.0 mb 0.00 in0.0 mm 0.00 in0.0 mm 0.00 in0.0 mm
05:20 AM 48.8°F9.3°C 47.6°F8.7°C 96% 5.7 mph WSW9.2 kmh WSW 8.0 mph12.9 kmh 29.59 in1002.0 mb 0.00 in0.0 mm 0.00 in0.0 mm 0.00 in0.0 mm
05:25 AM 48.6°F9.2°C 47.7°F8.7°C 97% 6.1 mph WSW9.8 kmh WSW 8.0 mph12.9 kmh 29.59 in1002.0 mb 0.00 in0.0 mm 0.00 in0.0 mm 0.00 in0.0 mm
05:30 AM 48.6°F9.2°C 47.7°F8.7°C 97% 5.2 mph SW8.4 kmh SW 8.0 mph12.9 kmh 29.59 in1002.0 mb 0.00 in0.0 mm 0.00 in0.0 mm 0.00 in0.0 mm
05:36 AM 48.6°F9.2°C 47.9°F8.8°C 98% 4.5 mph SSW7.2 kmh SSW 8.0 mph12.9 kmh 29.62 in1003.0 mb 0.00 in0.0 mm 0.00 in0.0 mm 0.00 in0.0 mm
05:41 AM 48.6°F9.2°C 47.9°F8.8°C 98% 4.6 mph WSW7.4 kmh WSW 7.2 mph11.6 kmh 29.62 in1003.0 mb 0.00 in0.0 mm 0.00 in0.0 mm 0.00 in0.0 mm
05:46 AM 48.6°F9.2°C 47.7°F8.7°C 97% 5.0 mph WSW8.0 kmh WSW 6.2 mph10.0 kmh 29.62 in1003.0 mb 0.00 in0.0 mm 0.00 in0.0 mm 0.00 in0.0 mm
05:51 AM 48.6°F9.2°C 47.7°F8.7°C 97% 5.0 mph WSW8.0 kmh WSW 6.8 mph10.9 kmh 29.65 in1004.1 mb 0.00 in0.0 mm 0.00 in0.0 mm 0.00 in0.0 mm
05:57 AM 48.8°F9.3°C 47.9°F8.8°C 97% 4.7 mph WSW7.6 kmh WSW 7.2 mph11.6 kmh 29.65 in1004.1 mb 0.00 in0.0 mm 0.00 in0.0 mm 0.00 in0.0 mm
06:02 AM 48.8°F9.3°C 47.9°F8.8°C 97% 3.9 mph WSW6.3 kmh WSW 6.2 mph10.0 kmh 29.65 in1004.1 mb 0.00 in0.0 mm 0.00 in0.0 mm 0.00 in0.0 mm
06:07 AM 48.8°F9.3°C 47.6°F8.7°C 96% 3.7 mph WSW6.0 kmh WSW 6.8 mph10.9 kmh 29.65 in1004.1 mb 0.00 in0.0 mm 0.00 in0.0 mm 0.00 in0.0 mm
06:12 AM 48.8°F9.3°C 47.9°F8.8°C 97% 5.0 mph WSW8.0 kmh WSW 7.2 mph11.6 kmh 29.65 in1004.1 mb 0.00 in0.0 mm 0.00 in0.0 mm 0.00 in0.0 mm
06:18 AM 48.8°F9.3°C 47.6°F8.7°C 96% 4.9 mph W7.9 kmh W 7.2 mph11.6 kmh 29.65 in1004.1 mb 0.00 in0.0 mm 0.00 in0.0 mm 0.00 in0.0 mm
06:23 AM 48.8°F9.3°C 47.6°F8.7°C 96% 5.0 mph NW8.0 kmh NW 8.0 mph12.9 kmh 29.65 in1004.1 mb 0.00 in0.0 mm 0.00 in0.0 mm 0.00 in0.0 mm
06:29 AM 48.8°F9.3°C 46.7°F8.2°C 93% 5.1 mph WNW8.2 kmh WNW 8.0 mph12.9 kmh 29.65 in1004.1 mb 0.00 in0.0 mm 0.00 in0.0 mm 0.00 in0.0 mm
06:34 AM 49.0°F9.4°C 44.3°F6.8°C 84% 5.8 mph W9.3 kmh W 11.2 mph18.0 kmh 29.65 in1004.1 mb 0.00 in0.0 mm 0.00 in0.0 mm 0.00 in0.0 mm
06:39 AM 49.0°F9.4°C 43.4°F6.3°C 81% 4.6 mph NW7.4 kmh NW 11.2 mph18.0 kmh 29.65 in1004.1 mb 0.00 in0.0 mm 0.00 in0.0 mm 0.00 in0.0 mm
06:44 AM 49.0°F9.4°C 42.7°F5.9°C 79% 5.2 mph W8.4 kmh W 8.6 mph13.8 kmh 29.65 in1004.1 mb 0.00 in0.0 mm 0.00 in0.0 mm 0.00 in0.0 mm
06:49 AM 49.0°F9.4°C 42.4°F5.8°C 78% 3.5 mph WNW5.6 kmh WNW 7.6 mph12.2 kmh 29.65 in1004.1 mb 0.00 in0.0 mm 0.00 in0.0 mm 0.00 in0.0 mm
06:54 AM 49.0°F9.4°C 42.1°F5.6°C 77% 4.2 mph WNW6.8 kmh WNW 6.8 mph10.9 kmh 29.68 in1005.1 mb 0.00 in0.0 mm 0.00 in0.0 mm 0.00 in0.0 mm
07:00 AM 49.0°F9.4°C 42.1°F5.6°C 77% 5.4 mph W8.7 kmh W 6.8 mph10.9 kmh 29.68 in1005.1 mb 0.00 in0.0 mm 0.00 in0.0 mm 0.00 in0.0 mm
07:05 AM 49.0°F9.4°C 42.4°F5.8°C 78% 5.3 mph W8.5 kmh W 6.8 mph10.9 kmh 29.68 in1005.1 mb 0.00 in0.0 mm 0.00 in0.0 mm 0.00 in0.0 mm
07:10 AM 48.8°F9.3°C 42.5°F5.8°C 79% 4.6 mph W7.4 kmh W 6.8 mph10.9 kmh 29.68 in1005.1 mb 0.00 in0.0 mm 0.00 in0.0 mm 0.00 in0.0 mm
07:15 AM 48.8°F9.3°C 42.5°F5.8°C 79% 4.9 mph W7.9 kmh W 6.2 mph10.0 kmh 29.68 in1005.1 mb 0.00 in0.0 mm 0.00 in0.0 mm 0.00 in0.0 mm
07:20 AM 48.8°F9.3°C 42.5°F5.8°C 79% 4.5 mph WNW7.2 kmh WNW 6.2 mph10.0 kmh 29.68 in1005.1 mb 0.00 in0.0 mm 0.00 in0.0 mm 0.00 in0.0 mm
07:25 AM 48.6°F9.2°C 42.0°F5.6°C 78% 5.5 mph W8.9 kmh W 6.8 mph10.9 kmh 29.68 in1005.1 mb 0.00 in0.0 mm 0.00 in0.0 mm 0.00 in0.0 mm
07:30 AM 48.6°F9.2°C 41.7°F5.4°C 77% 3.4 mph W5.5 kmh W 6.8 mph10.9 kmh 29.68 in1005.1 mb 0.00 in0.0 mm 0.00 in0.0 mm 0.00 in0.0 mm
07:35 AM 48.6°F9.2°C 41.0°F5.0°C 75% 5.8 mph W9.3 kmh W 7.6 mph12.2 kmh 29.68 in1005.1 mb 0.00 in0.0 mm 0.00 in0.0 mm 0.00 in0.0 mm
07:40 AM 48.6°F9.2°C 41.4°F5.2°C 76% 5.0 mph W8.0 kmh W 7.6 mph12.2 kmh 29.68 in1005.1 mb 0.00 in0.0 mm 0.00 in0.0 mm 0.00 in0.0 mm
07:45 AM 49.0°F9.4°C 41.7°F5.4°C 76% 4.8 mph WNW7.7 kmh WNW 7.6 mph12.2 kmh 29.68 in1005.1 mb 0.00 in0.0 mm 0.00 in0.0 mm 0.00 in0.0 mm
07:51 AM 49.0°F9.4°C 41.4°F5.2°C 75% 6.0 mph W9.7 kmh W 7.6 mph12.2 kmh 29.68 in1005.1 mb 0.00 in0.0 mm 0.00 in0.0 mm 0.00 in0.0 mm
07:56 AM 49.0°F9.4°C 41.4°F5.2°C 75% 4.3 mph W6.9 kmh W 8.0 mph12.9 kmh 29.68 in1005.1 mb 0.00 in0.0 mm 0.00 in0.0 mm 0.00 in0.0 mm
08:01 AM 49.0°F9.4°C 41.1°F5.1°C 74% 5.9 mph WSW9.5 kmh WSW 8.0 mph12.9 kmh 29.68 in1005.1 mb 0.00 in0.0 mm 0.00 in0.0 mm 0.00 in0.0 mm
08:06 AM 49.0°F9.4°C 40.4°F4.7°C 72% 5.3 mph W8.5 kmh W 8.0 mph12.9 kmh 29.71 in1006.1 mb 0.00 in0.0 mm 0.00 in0.0 mm 0.00 in0.0 mm
08:11 AM 49.2°F9.6°C 40.2°F4.6°C 71% 6.6 mph W10.6 kmh W 9.8 mph15.8 kmh 29.71 in1006.1 mb 0.00 in0.0 mm 0.00 in0.0 mm 0.00 in0.0 mm
08:16 AM 49.4°F9.7°C 40.4°F4.7°C 71% 5.7 mph NW9.2 kmh NW 9.8 mph15.8 kmh 29.71 in1006.1 mb 0.00 in0.0 mm 0.00 in0.0 mm 0.00 in0.0 mm
08:21 AM 49.5°F9.7°C 40.1°F4.5°C 70% 6.9 mph W11.1 kmh W 8.6 mph13.8 kmh 29.71 in1006.1 mb 0.00 in0.0 mm 0.00 in0.0 mm 0.00 in0.0 mm
08:26 AM 49.7°F9.8°C 40.3°F4.6°C 70% 5.2 mph WSW8.4 kmh WSW 9.8 mph15.8 kmh 29.71 in1006.1 mb 0.00 in0.0 mm 0.00 in0.0 mm 0.00 in0.0 mm
08:32 AM 49.7°F9.8°C 39.6°F4.2°C 68% 7.0 mph W11.3 kmh W 10.8 mph17.4 kmh 29.71 in1006.1 mb 0.00 in0.0 mm 0.00 in0.0 mm 0.00 in0.0 mm
08:37 AM 49.9°F9.9°C 39.4°F4.1°C 67% 7.0 mph W11.3 kmh W 10.8 mph17.4 kmh 29.74 in1007.1 mb 0.00 in0.0 mm 0.00 in0.0 mm 0.00 in0.0 mm
08:42 AM 49.9°F9.9°C 39.8°F4.3°C 68% 5.3 mph W8.5 kmh W 9.8 mph15.8 kmh 29.74 in1007.1 mb 0.00 in0.0 mm 0.00 in0.0 mm 0.00 in0.0 mm
08:47 AM 50.6°F10.3°C 40.4°F4.7°C 68% 5.4 mph SW8.7 kmh SW 9.8 mph15.8 kmh 29.74 in1007.1 mb 0.00 in0.0 mm 0.00 in0.0 mm 0.00 in0.0 mm
08:52 AM 50.8°F10.4°C 39.9°F4.4°C 66% 5.6 mph W9.0 kmh W 8.0 mph12.9 kmh 29.74 in1007.1 mb 0.00 in0.0 mm 0.00 in0.0 mm 0.00 in0.0 mm
08:57 AM 50.6°F10.3°C 39.3°F4.1°C 65% 6.4 mph WNW10.3 kmh WNW 8.6 mph13.8 kmh 29.74 in1007.1 mb 0.00 in0.0 mm 0.00 in0.0 mm 0.00 in0.0 mm
09:02 AM 51.0°F10.6°C 39.3°F4.1°C 64% 6.1 mph WSW9.8 kmh WSW 9.8 mph15.8 kmh 29.74 in1007.1 mb 0.00 in0.0 mm 0.00 in0.0 mm 0.00 in0.0 mm
09:07 AM 51.0°F10.6°C 38.0°F3.3°C 61% 6.9 mph WSW11.1 kmh WSW 12.0 mph19.3 kmh 29.74 in1007.1 mb 0.00 in0.0 mm 0.00 in0.0 mm 0.00 in0.0 mm
09:13 AM 51.0°F10.6°C 37.2°F2.9°C 59% 7.1 mph WNW11.4 kmh WNW 12.0 mph19.3 kmh 29.74 in1007.1 mb 0.00 in0.0 mm 0.00 in0.0 mm 0.00 in0.0 mm
09:18 AM 51.9°F11.1°C 38.9°F3.8°C 61% 5.3 mph W8.5 kmh W 12.0 mph19.3 kmh 29.74 in1007.1 mb 0.00 in0.0 mm 0.00 in0.0 mm 0.00 in0.0 mm
09:24 AM 52.8°F11.6°C 38.0°F3.3°C 57% 9.3 mph W15.0 kmh W 12.0 mph19.3 kmh 29.74 in1007.1 mb 0.00 in0.0 mm 0.00 in0.0 mm 0.00 in0.0 mm
09:29 AM 53.0°F11.7°C 37.2°F2.9°C 55% 7.3 mph WNW11.7 kmh WNW 12.0 mph19.3 kmh 29.74 in1007.1 mb 0.00 in0.0 mm 0.00 in0.0 mm 0.00 in0.0 mm
09:35 AM 54.0°F12.2°C 37.7°F3.2°C 54% 8.3 mph W13.4 kmh W 11.6 mph18.7 kmh 29.74 in1007.1 mb 0.00 in0.0 mm 0.00 in0.0 mm 0.00 in0.0 mm
09:40 AM 54.6°F12.6°C 38.2°F3.4°C 54% 7.7 mph W12.4 kmh W 12.0 mph19.3 kmh 29.71 in1006.1 mb 0.00 in0.0 mm 0.00 in0.0 mm 0.00 in0.0 mm
09:45 AM 54.4°F12.4°C 36.5°F2.5°C 51% 7.7 mph WNW12.4 kmh WNW 12.0 mph19.3 kmh 29.71 in1006.1 mb 0.00 in0.0 mm 0.00 in0.0 mm 0.00 in0.0 mm
09:50 AM 54.8°F12.7°C 36.4°F2.4°C 50% 6.8 mph WSW10.9 kmh WSW 13.0 mph20.9 kmh 29.71 in1006.1 mb 0.00 in0.0 mm 0.00 in0.0 mm 0.00 in0.0 mm
09:55 AM 56.2°F13.4°C 38.2°F3.4°C 51% 6.3 mph WNW10.1 kmh WNW 13.0 mph20.9 kmh 29.74 in1007.1 mb 0.00 in0.0 mm 0.00 in0.0 mm 0.00 in0.0 mm
10:00 AM 56.2°F13.4°C 37.2°F2.9°C 49% 8.9 mph WNW14.3 kmh WNW 15.6 mph25.1 kmh 29.74 in1007.1 mb 0.00 in0.0 mm 0.00 in0.0 mm 0.00 in0.0 mm
10:05 AM 55.8°F13.2°C 36.8°F2.7°C 49% 7.6 mph NW12.2 kmh NW 15.6 mph25.1 kmh 29.74 in1007.1 mb 0.00 in0.0 mm 0.00 in0.0 mm 0.00 in0.0 mm
10:10 AM 55.3°F12.9°C 36.3°F2.4°C 49% 6.1 mph WNW9.8 kmh WNW 12.6 mph20.3 kmh 29.74 in1007.1 mb 0.00 in0.0 mm 0.00 in0.0 mm 0.00 in0.0 mm
10:15 AM 54.9°F12.7°C 37.0°F2.8°C 51% 5.8 mph W9.3 kmh W 9.4 mph15.1 kmh 29.74 in1007.1 mb 0.00 in0.0 mm 0.00 in0.0 mm 0.00 in0.0 mm
10:20 AM 53.9°F12.2°C 35.0°F1.7°C 49% 8.3 mph W13.4 kmh W 11.2 mph18.0 kmh 29.74 in1007.1 mb 0.00 in0.0 mm 0.00 in0.0 mm 0.00 in0.0 mm
10:25 AM 54.0°F12.2°C 35.7°F2.1°C 50% 6.8 mph W10.9 kmh W 12.0 mph19.3 kmh 29.77 in1008.1 mb 0.00 in0.0 mm 0.00 in0.0 mm 0.00 in0.0 mm
10:30 AM 54.0°F12.2°C 35.1°F1.7°C 49% 7.5 mph WNW12.1 kmh WNW 13.0 mph20.9 kmh 29.77 in1008.1 mb 0.00 in0.0 mm 0.00 in0.0 mm 0.00 in0.0 mm
10:35 AM 56.6°F13.7°C 37.0°F2.8°C 48% 6.2 mph N10.0 kmh N 13.0 mph20.9 kmh 29.77 in1008.1 mb 0.00 in0.0 mm 0.00 in0.0 mm 0.00 in0.0 mm
10:40 AM 57.8°F14.3°C 37.0°F2.8°C 46% 6.8 mph WNW10.9 kmh WNW 12.0 mph19.3 kmh 29.74 in1007.1 mb 0.00 in0.0 mm 0.00 in0.0 mm 0.00 in0.0 mm
10:45 AM 57.8°F14.3°C 36.4°F2.4°C 45% 10.5 mph SW16.9 kmh SW 14.8 mph23.8 kmh 29.74 in1007.1 mb 0.00 in0.0 mm 0.00 in0.0 mm 0.00 in0.0 mm
10:50 AM 57.3°F14.1°C 35.9°F2.2°C 45% 6.0 mph NW9.7 kmh NW 14.8 mph23.8 kmh 29.74 in1007.1 mb 0.00 in0.0 mm 0.00 in0.0 mm 0.00 in0.0 mm
10:55 AM 56.2°F13.4°C 34.4°F1.3°C 44% 8.4 mph W13.5 kmh W 13.0 mph20.9 kmh 29.74 in1007.1 mb 0.00 in0.0 mm 0.00 in0.0 mm 0.00 in0.0 mm
11:00 AM 56.2°F13.4°C 34.9°F1.6°C 45% 10.3 mph W16.6 kmh W 14.4 mph23.2 kmh 29.74 in1007.1 mb 0.00 in0.0 mm 0.00 in0.0 mm 0.00 in0.0 mm
11:05 AM 57.3°F14.1°C 35.4°F1.9°C 44% 7.7 mph W12.4 kmh W 14.4 mph23.2 kmh 29.74 in1007.1 mb 0.00 in0.0 mm 0.00 in0.0 mm 0.00 in0.0 mm
11:10 AM 57.3°F14.1°C 35.9°F2.2°C 45% 7.7 mph NW12.4 kmh NW 12.6 mph20.3 kmh 29.77 in1008.1 mb 0.00 in0.0 mm 0.00 in0.0 mm 0.00 in0.0 mm
11:15 AM 57.3°F14.1°C 34.8°F1.6°C 43% 9.5 mph NW15.3 kmh NW 17.0 mph27.4 kmh 29.77 in1008.1 mb 0.00 in0.0 mm 0.00 in0.0 mm 0.00 in0.0 mm
11:20 AM 58.7°F14.8°C 36.6°F2.6°C 44% 7.1 mph NW11.4 kmh NW 17.0 mph27.4 kmh 29.77 in1008.1 mb 0.00 in0.0 mm 0.00 in0.0 mm 0.00 in0.0 mm
11:29 AM 57.1°F13.9°C 34.0°F1.1°C 42% 11.3 mph WNW18.2 kmh WNW 16.2 mph26.1 kmh 29.77 in1008.1 mb 0.00 in0.0 mm 0.00 in0.0 mm 0.00 in0.0 mm
11:34 AM 58.5°F14.7°C 37.0°F2.8°C 45% 9.2 mph N14.8 kmh N 14.8 mph23.8 kmh 29.77 in1008.1 mb 0.00 in0.0 mm 0.00 in0.0 mm 0.00 in0.0 mm
11:39 AM 59.1°F15.1°C 35.2°F1.8°C 41% 11.0 mph N17.7 kmh N 17.4 mph28.0 kmh 29.77 in1008.1 mb 0.00 in0.0 mm 0.00 in0.0 mm 0.00 in0.0 mm
11:44 AM 59.9°F15.5°C 35.3°F1.8°C 40% 6.0 mph NNW9.7 kmh NNW 17.4 mph28.0 kmh 29.77 in1008.1 mb 0.00 in0.0 mm 0.00 in0.0 mm 0.00 in0.0 mm
11:49 AM 60.2°F15.7°C 35.6°F2.0°C 40% 10.3 mph NW16.6 kmh NW 17.0 mph27.4 kmh 29.77 in1008.1 mb 0.00 in0.0 mm 0.00 in0.0 mm 0.00 in0.0 mm
11:54 AM 60.4°F15.8°C 35.1°F1.7°C 39% 9.6 mph W15.4 kmh W 17.0 mph27.4 kmh 29.77 in1008.1 mb 0.00 in0.0 mm 0.00 in0.0 mm 0.00 in0.0 mm
11:59 AM 59.8°F15.4°C 35.2°F1.8°C 40% 8.2 mph WNW13.2 kmh WNW 12.6 mph20.3 kmh 29.77 in1008.1 mb 0.00 in0.0 mm 0.00 in0.0 mm 0.00 in0.0 mm
12:04 PM 57.5°F14.2°C 33.1°F0.6°C 40% 7.9 mph W12.7 kmh W 12.6 mph20.3 kmh 29.77 in1008.1 mb 0.00 in0.0 mm 0.00 in0.0 mm 0.00 in0.0 mm
12:09 PM 59.6°F15.3°C 35.0°F1.7°C 40% 6.4 mph NW10.3 kmh NW 11.6 mph18.7 kmh 29.77 in1008.1 mb 0.00 in0.0 mm 0.00 in0.0 mm 0.00 in0.0 mm
12:14 PM 60.6°F15.9°C 35.3°F1.8°C 39% 9.1 mph WNW14.6 kmh WNW 11.2 mph18.0 kmh 29.77 in1008.1 mb 0.00 in0.0 mm 0.00 in0.0 mm 0.00 in0.0 mm
12:19 PM 60.6°F15.9°C 36.0°F2.2°C 40% 6.7 mph NW10.8 kmh NW 12.6 mph20.3 kmh 29.77 in1008.1 mb 0.00 in0.0 mm 0.00 in0.0 mm 0.00 in0.0 mm
12:24 PM 57.8°F14.3°C 32.7°F0.4°C 39% 10.7 mph WNW17.2 kmh WNW 15.2 mph24.5 kmh 29.74 in1007.1 mb 0.00 in0.0 mm 0.00 in0.0 mm 0.00 in0.0 mm
12:29 PM 57.5°F14.2°C 33.1°F0.6°C 40% 9.6 mph WNW15.4 kmh WNW 15.2 mph24.5 kmh 29.74 in1007.1 mb 0.00 in0.0 mm 0.00 in0.0 mm 0.00 in0.0 mm
12:34 PM 59.1°F15.1°C 33.9°F1.1°C 39% 13.0 mph W20.9 kmh W 15.2 mph24.5 kmh 29.74 in1007.1 mb 0.00 in0.0 mm 0.00 in0.0 mm 0.00 in0.0 mm
12:39 PM 58.9°F14.9°C 33.7°F0.9°C 39% 11.0 mph W17.7 kmh W 17.4 mph28.0 kmh 29.74 in1007.1 mb 0.00 in0.0 mm 0.00 in0.0 mm 0.00 in0.0 mm
12:44 PM 58.4°F14.7°C 33.9°F1.1°C 40% 5.4 mph NW8.7 kmh NW 17.4 mph28.0 kmh 29.74 in1007.1 mb 0.00 in0.0 mm 0.00 in0.0 mm 0.00 in0.0 mm
12:49 PM 57.1°F13.9°C 32.7°F0.4°C 40% 7.7 mph WNW12.4 kmh WNW 14.4 mph23.2 kmh 29.74 in1007.1 mb 0.00 in0.0 mm 0.00 in0.0 mm 0.00 in0.0 mm
12:54 PM 58.0°F14.4°C 34.2°F1.2°C 41% 5.9 mph NNW9.5 kmh NNW 14.4 mph23.2 kmh 29.77 in1008.1 mb 0.00 in0.0 mm 0.00 in0.0 mm 0.00 in0.0 mm
12:59 PM 57.5°F14.2°C 32.4°F0.2°C 39% 8.5 mph W13.7 kmh W 12.6 mph20.3 kmh 29.77 in1008.1 mb 0.00 in0.0 mm 0.00 in0.0 mm 0.00 in0.0 mm
01:04 PM 58.2°F14.6°C 34.3°F1.3°C 41% 8.0 mph W12.9 kmh W 12.6 mph20.3 kmh 29.77 in1008.1 mb 0.00 in0.0 mm 0.00 in0.0 mm 0.00 in0.0 mm
01:09 PM 58.0°F14.4°C 33.5°F0.8°C 40% 7.7 mph W12.4 kmh W 12.6 mph20.3 kmh 29.74 in1007.1 mb 0.00 in0.0 mm 0.00 in0.0 mm 0.00 in0.0 mm
01:14 PM 57.6°F14.2°C 32.5°F0.3°C 39% 8.6 mph WSW13.8 kmh WSW 13.8 mph22.2 kmh 29.74 in1007.1 mb 0.00 in0.0 mm 0.00 in0.0 mm 0.00 in0.0 mm
01:20 PM 59.3°F15.2°C 34.7°F1.5°C 40% 6.7 mph WNW10.8 kmh WNW 13.8 mph22.2 kmh 29.74 in1007.1 mb 0.00 in0.0 mm 0.00 in0.0 mm 0.00 in0.0 mm
01:25 PM 58.4°F14.7°C 33.9°F1.1°C 40% 8.2 mph NW13.2 kmh NW 11.6 mph18.7 kmh 29.74 in1007.1 mb 0.00 in0.0 mm 0.00 in0.0 mm 0.00 in0.0 mm
01:33 PM 57.6°F14.2°C 33.2°F0.7°C 40% 6.5 mph W10.5 kmh W 11.6 mph18.7 kmh 29.74 in1007.1 mb 0.00 in0.0 mm 0.00 in0.0 mm 0.00 in0.0 mm
01:38 PM 58.4°F14.7°C 34.5°F1.4°C 41% 5.7 mph W9.2 kmh W 9.8 mph15.8 kmh 29.71 in1006.1 mb 0.00 in0.0 mm 0.00 in0.0 mm 0.00 in0.0 mm
01:43 PM 58.5°F14.7°C 34.0°F1.1°C 40% 8.5 mph W13.7 kmh W 11.2 mph18.0 kmh 29.71 in1006.1 mb 0.00 in0.0 mm 0.00 in0.0 mm 0.00 in0.0 mm
01:48 PM 59.1°F15.1°C 33.9°F1.1°C 39% 6.6 mph WNW10.6 kmh WNW 12.6 mph20.3 kmh 29.71 in1006.1 mb 0.00 in0.0 mm 0.00 in0.0 mm 0.00 in0.0 mm
01:54 PM 58.7°F14.8°C 34.2°F1.2°C 40% 8.9 mph WNW14.3 kmh WNW 12.6 mph20.3 kmh 29.74 in1007.1 mb 0.00 in0.0 mm 0.00 in0.0 mm 0.00 in0.0 mm
01:59 PM 59.8°F15.4°C 35.2°F1.8°C 40% 4.5 mph WNW7.2 kmh WNW 12.0 mph19.3 kmh 29.74 in1007.1 mb 0.00 in0.0 mm 0.00 in0.0 mm 0.00 in0.0 mm
02:04 PM 62.4°F16.9°C 36.9°F2.7°C 39% 7.0 mph SW11.3 kmh SW 13.0 mph20.9 kmh 29.74 in1007.1 mb 0.00 in0.0 mm 0.00 in0.0 mm 0.00 in0.0 mm
02:09 PM 64.2°F17.9°C 37.2°F2.9°C 37% 6.6 mph SW10.6 kmh SW 13.0 mph20.9 kmh 29.74 in1007.1 mb 0.00 in0.0 mm 0.00 in0.0 mm 0.00 in0.0 mm
02:14 PM 63.1°F17.3°C 36.2°F2.3°C 37% 6.7 mph W10.8 kmh W 12.0 mph19.3 kmh 29.74 in1007.1 mb 0.00 in0.0 mm 0.00 in0.0 mm 0.00 in0.0 mm
02:19 PM 60.2°F15.7°C 34.3°F1.3°C 38% 8.5 mph W13.7 kmh W 13.4 mph21.6 kmh 29.74 in1007.1 mb 0.00 in0.0 mm 0.00 in0.0 mm 0.00 in0.0 mm
02:24 PM 59.8°F15.4°C 33.8°F1.0°C 38% 9.5 mph W15.3 kmh W 13.4 mph21.6 kmh 29.74 in1007.1 mb 0.00 in0.0 mm 0.00 in0.0 mm 0.00 in0.0 mm
02:29 PM 59.4°F15.2°C 34.1°F1.2°C 39% 7.8 mph W12.6 kmh W 12.6 mph20.3 kmh 29.74 in1007.1 mb 0.00 in0.0 mm 0.00 in0.0 mm 0.00 in0.0 mm
02:34 PM 58.4°F14.7°C 33.9°F1.1°C 40% 7.3 mph WNW11.7 kmh WNW 10.8 mph17.4 kmh 29.74 in1007.1 mb 0.00 in0.0 mm 0.00 in0.0 mm 0.00 in0.0 mm
02:39 PM 57.6°F14.2°C 33.8°F1.0°C 41% 8.8 mph W14.2 kmh W 12.0 mph19.3 kmh 29.71 in1006.1 mb 0.00 in0.0 mm 0.00 in0.0 mm 0.00 in0.0 mm
02:44 PM 57.1°F13.9°C 33.4°F0.8°C 41% 9.5 mph W15.3 kmh W 13.0 mph20.9 kmh 29.71 in1006.1 mb 0.00 in0.0 mm 0.00 in0.0 mm 0.00 in0.0 mm
02:49 PM 56.9°F13.8°C 33.8°F1.0°C 42% 9.1 mph W14.6 kmh W 13.4 mph21.6 kmh 29.71 in1006.1 mb 0.00 in0.0 mm 0.00 in0.0 mm 0.00 in0.0 mm
02:56 PM 57.1°F13.9°C 33.4°F0.8°C 41% 9.8 mph WSW15.8 kmh WSW 17.4 mph28.0 kmh 29.71 in1006.1 mb 0.00 in0.0 mm 0.00 in0.0 mm 0.00 in0.0 mm
03:01 PM 57.1°F13.9°C 34.0°F1.1°C 42% 8.0 mph WSW12.9 kmh WSW 17.4 mph28.0 kmh 29.71 in1006.1 mb 0.00 in0.0 mm 0.00 in0.0 mm 0.00 in0.0 mm
03:06 PM 56.9°F13.8°C 34.4°F1.3°C 43% 8.8 mph W14.2 kmh W 12.6 mph20.3 kmh 29.71 in1006.1 mb 0.00 in0.0 mm 0.00 in0.0 mm 0.00 in0.0 mm
03:11 PM 56.7°F13.7°C 34.8°F1.6°C 44% 6.1 mph W9.8 kmh W 12.6 mph20.3 kmh 29.71 in1006.1 mb 0.00 in0.0 mm 0.00 in0.0 mm 0.00 in0.0 mm
03:17 PM 58.4°F14.7°C 36.9°F2.7°C 45% 3.0 mph SSW4.8 kmh SSW 8.0 mph12.9 kmh 29.71 in1006.1 mb 0.00 in0.0 mm 0.00 in0.0 mm 0.00 in0.0 mm
03:22 PM 58.7°F14.8°C 36.6°F2.6°C 44% 5.4 mph W8.7 kmh W 7.6 mph12.2 kmh 29.74 in1007.1 mb 0.00 in0.0 mm 0.00 in0.0 mm 0.00 in0.0 mm
03:27 PM 57.6°F14.2°C 35.6°F2.0°C 44% 5.3 mph WSW8.5 kmh WSW 8.0 mph12.9 kmh 29.74 in1007.1 mb 0.00 in0.0 mm 0.00 in0.0 mm 0.00 in0.0 mm
03:32 PM 57.5°F14.2°C 35.5°F1.9°C 44% 8.2 mph WNW13.2 kmh WNW 13.0 mph20.9 kmh 29.74 in1007.1 mb 0.00 in0.0 mm 0.00 in0.0 mm 0.00 in0.0 mm
03:37 PM 56.9°F13.8°C 35.0°F1.7°C 44% 7.2 mph WNW11.6 kmh WNW 13.0 mph20.9 kmh 29.74 in1007.1 mb 0.00 in0.0 mm 0.00 in0.0 mm 0.00 in0.0 mm
03:42 PM 56.4°F13.6°C 34.5°F1.4°C 44% 7.5 mph W12.1 kmh W 10.8 mph17.4 kmh 29.74 in1007.1 mb 0.00 in0.0 mm 0.00 in0.0 mm 0.00 in0.0 mm
03:47 PM 56.4°F13.6°C 35.1°F1.7°C 45% 6.0 mph WNW9.7 kmh WNW 10.8 mph17.4 kmh 29.74 in1007.1 mb 0.00 in0.0 mm 0.00 in0.0 mm 0.00 in0.0 mm
03:52 PM 56.7°F13.7°C 36.0°F2.2°C 46% 5.8 mph WNW9.3 kmh WNW 8.6 mph13.8 kmh 29.74 in1007.1 mb 0.00 in0.0 mm 0.00 in0.0 mm 0.00 in0.0 mm
03:57 PM 57.3°F14.1°C 35.9°F2.2°C 45% 5.2 mph W8.4 kmh W 11.6 mph18.7 kmh 29.74 in1007.1 mb 0.00 in0.0 mm 0.00 in0.0 mm 0.00 in0.0 mm
04:02 PM 57.6°F14.2°C 35.6°F2.0°C 44% 10.7 mph W17.2 kmh W 13.0 mph20.9 kmh 29.74 in1007.1 mb 0.00 in0.0 mm 0.00 in0.0 mm 0.00 in0.0 mm
04:07 PM 57.1°F13.9°C 35.8°F2.1°C 45% 7.4 mph WSW11.9 kmh WSW 13.0 mph20.9 kmh 29.74 in1007.1 mb 0.00 in0.0 mm 0.00 in0.0 mm 0.00 in0.0 mm
04:12 PM 56.9°F13.8°C 35.6°F2.0°C 45% 5.3 mph WSW8.5 kmh WSW 12.6 mph20.3 kmh 29.74 in1007.1 mb 0.00 in0.0 mm 0.00 in0.0 mm 0.00 in0.0 mm
04:17 PM 57.3°F14.1°C 35.9°F2.2°C 45% 4.2 mph WNW6.8 kmh WNW 8.6 mph13.8 kmh 29.74 in1007.1 mb 0.00 in0.0 mm 0.00 in0.0 mm 0.00 in0.0 mm
04:22 PM 57.6°F14.2°C 36.2°F2.3°C 45% 3.5 mph NW5.6 kmh NW 8.6 mph13.8 kmh 29.74 in1007.1 mb 0.00 in0.0 mm 0.00 in0.0 mm 0.00 in0.0 mm
04:27 PM 56.9°F13.8°C 35.6°F2.0°C 45% 8.2 mph W13.2 kmh W 9.8 mph15.8 kmh 29.74 in1007.1 mb 0.00 in0.0 mm 0.00 in0.0 mm 0.00 in0.0 mm
04:32 PM 56.9°F13.8°C 35.6°F2.0°C 45% 5.1 mph NW8.2 kmh NW 9.8 mph15.8 kmh 29.74 in1007.1 mb 0.00 in0.0 mm 0.00 in0.0 mm 0.00 in0.0 mm
04:37 PM 56.7°F13.7°C 34.8°F1.6°C 44% 8.0 mph WNW12.9 kmh WNW 9.4 mph15.1 kmh 29.74 in1007.1 mb 0.00 in0.0 mm 0.00 in0.0 mm 0.00 in0.0 mm
04:42 PM 56.6°F13.7°C 35.3°F1.8°C 45% 4.4 mph WNW7.1 kmh WNW 8.6 mph13.8 kmh 29.74 in1007.1 mb 0.00 in0.0 mm 0.00 in0.0 mm 0.00 in0.0 mm
04:47 PM 56.2°F13.4°C 34.9°F1.6°C 45% 4.1 mph NW6.6 kmh NW 7.6 mph12.2 kmh 29.74 in1007.1 mb 0.00 in0.0 mm 0.00 in0.0 mm 0.00 in0.0 mm
04:52 PM 56.0°F13.3°C 34.8°F1.6°C 45% 3.8 mph WNW6.1 kmh WNW 7.6 mph12.2 kmh 29.74 in1007.1 mb 0.00 in0.0 mm 0.00 in0.0 mm 0.00 in0.0 mm
04:58 PM 58.2°F14.6°C 36.8°F2.7°C 45% 3.3 mph S5.3 kmh S 7.6 mph12.2 kmh 29.74 in1007.1 mb 0.00 in0.0 mm 0.00 in0.0 mm 0.00 in0.0 mm
05:03 PM 57.6°F14.2°C 35.0°F1.7°C 43% 6.1 mph WNW9.8 kmh WNW 12.6 mph20.3 kmh 29.74 in1007.1 mb 0.00 in0.0 mm 0.00 in0.0 mm 0.00 in0.0 mm
05:09 PM 56.7°F13.7°C 34.2°F1.2°C 43% 9.3 mph W15.0 kmh W 12.6 mph20.3 kmh 29.74 in1007.1 mb 0.00 in0.0 mm 0.00 in0.0 mm 0.00 in0.0 mm
05:14 PM 56.2°F13.4°C 33.8°F1.0°C 43% 8.0 mph W12.9 kmh W 12.6 mph20.3 kmh 29.74 in1007.1 mb 0.00 in0.0 mm 0.00 in0.0 mm 0.00 in0.0 mm
05:19 PM 55.8°F13.2°C 34.0°F1.1°C 44% 8.7 mph W14.0 kmh W 12.6 mph20.3 kmh 29.74 in1007.1 mb 0.00 in0.0 mm 0.00 in0.0 mm 0.00 in0.0 mm
05:24 PM 55.1°F12.8°C 32.8°F0.4°C 43% 10.0 mph W16.1 kmh W 14.4 mph23.2 kmh 29.74 in1007.1 mb 0.00 in0.0 mm 0.00 in0.0 mm 0.00 in0.0 mm
05:29 PM 55.1°F12.8°C 33.4°F0.8°C 44% 4.8 mph NW7.7 kmh NW 17.4 mph28.0 kmh 29.74 in1007.1 mb 0.00 in0.0 mm 0.00 in0.0 mm 0.00 in0.0 mm
05:34 PM 54.8°F12.7°C 33.1°F0.6°C 44% 6.4 mph NW10.3 kmh NW 17.4 mph28.0 kmh 29.74 in1007.1 mb 0.00 in0.0 mm 0.00 in0.0 mm 0.00 in0.0 mm
05:39 PM 54.4°F12.4°C 32.1°F0.1°C 43% 7.6 mph NW12.2 kmh NW 13.8 mph22.2 kmh 29.74 in1007.1 mb 0.00 in0.0 mm 0.00 in0.0 mm 0.00 in0.0 mm
05:44 PM 54.0°F12.2°C 31.8°F-0.1°C 43% 5.4 mph WNW8.7 kmh WNW 13.8 mph22.2 kmh 29.74 in1007.1 mb 0.00 in0.0 mm 0.00 in0.0 mm 0.00 in0.0 mm
05:49 PM 53.9°F12.2°C 32.3°F0.2°C 44% 6.5 mph W10.5 kmh W 10.8 mph17.4 kmh 29.74 in1007.1 mb 0.00 in0.0 mm 0.00 in0.0 mm 0.00 in0.0 mm
05:54 PM 53.7°F12.1°C 31.5°F-0.3°C 43% 6.6 mph WNW10.6 kmh WNW 10.8 mph17.4 kmh 29.74 in1007.1 mb 0.00 in0.0 mm 0.00 in0.0 mm 0.00 in0.0 mm
05:59 PM 53.7°F12.1°C 32.1°F0.1°C 44% 4.7 mph NW7.6 kmh NW 10.8 mph17.4 kmh 29.74 in1007.1 mb 0.00 in0.0 mm 0.00 in0.0 mm 0.00 in0.0 mm
06:04 PM 53.7°F12.1°C 32.1°F0.1°C 44% 4.9 mph NNW7.9 kmh NNW 7.2 mph11.6 kmh 29.74 in1007.1 mb 0.00 in0.0 mm 0.00 in0.0 mm 0.00 in0.0 mm
06:09 PM 53.5°F11.9°C 32.5°F0.3°C 45% 4.9 mph NW7.9 kmh NW 10.8 mph17.4 kmh 29.74 in1007.1 mb 0.00 in0.0 mm 0.00 in0.0 mm 0.00 in0.0 mm
06:14 PM 53.1°F11.7°C 32.1°F0.1°C 45% 3.7 mph NNW6.0 kmh NNW 10.8 mph17.4 kmh 29.74 in1007.1 mb 0.00 in0.0 mm 0.00 in0.0 mm 0.00 in0.0 mm
06:19 PM 53.0°F11.7°C 32.0°F0.0°C 45% 6.9 mph NNW11.1 kmh NNW 12.0 mph19.3 kmh 29.74 in1007.1 mb 0.00 in0.0 mm 0.00 in0.0 mm 0.00 in0.0 mm
06:24 PM 52.1°F11.2°C 30.6°F-0.8°C 44% 12.8 mph N20.6 kmh N 21.0 mph33.8 kmh 29.77 in1008.1 mb 0.00 in0.0 mm 0.00 in0.0 mm 0.00 in0.0 mm
06:29 PM 51.5°F10.8°C 30.7°F-0.7°C 45% 9.6 mph N15.4 kmh N 21.0 mph33.8 kmh 29.77 in1008.1 mb 0.00 in0.0 mm 0.00 in0.0 mm 0.00 in0.0 mm
06:35 PM 50.6°F10.3°C 29.3°F-1.5°C 44% 12.0 mph NNW19.3 kmh NNW 20.6 mph33.2 kmh 29.77 in1008.1 mb 0.00 in0.0 mm 0.00 in0.0 mm 0.00 in0.0 mm
06:40 PM 50.1°F10.1°C 29.4°F-1.4°C 45% 8.2 mph NNW13.2 kmh NNW 20.6 mph33.2 kmh 29.80 in1009.1 mb 0.00 in0.0 mm 0.00 in0.0 mm 0.00 in0.0 mm
06:45 PM 49.9°F9.9°C 29.2°F-1.6°C 45% 9.1 mph NE14.6 kmh NE 20.2 mph32.5 kmh 29.80 in1009.1 mb 0.00 in0.0 mm 0.00 in0.0 mm 0.00 in0.0 mm
06:50 PM 49.5°F9.7°C 29.4°F-1.4°C 46% 6.2 mph N10.0 kmh N 20.2 mph32.5 kmh 29.80 in1009.1 mb 0.00 in0.0 mm 0.00 in0.0 mm 0.00 in0.0 mm
06:55 PM 49.4°F9.7°C 29.3°F-1.5°C 46% 6.3 mph NNW10.1 kmh NNW 19.2 mph30.9 kmh 29.80 in1009.1 mb 0.00 in0.0 mm 0.00 in0.0 mm 0.00 in0.0 mm
07:02 PM 49.0°F9.4°C 28.9°F-1.7°C 46% 6.0 mph NNW9.7 kmh NNW 19.2 mph30.9 kmh 29.80 in1009.1 mb 0.00 in0.0 mm 0.00 in0.0 mm 0.00 in0.0 mm
07:07 PM 48.8°F9.3°C 29.3°F-1.5°C 47% 6.6 mph NW10.6 kmh NW 11.2 mph18.0 kmh 29.80 in1009.1 mb 0.00 in0.0 mm 0.00 in0.0 mm 0.00 in0.0 mm
07:12 PM 48.6°F9.2°C 29.1°F-1.6°C 47% 6.1 mph NNW9.8 kmh NNW 11.2 mph18.0 kmh 29.80 in1009.1 mb 0.00 in0.0 mm 0.00 in0.0 mm 0.00 in0.0 mm
07:17 PM 48.6°F9.2°C 29.1°F-1.6°C 47% 6.5 mph NNW10.5 kmh NNW 9.8 mph15.8 kmh 29.80 in1009.1 mb 0.00 in0.0 mm 0.00 in0.0 mm 0.00 in0.0 mm
07:22 PM 48.5°F9.2°C 29.0°F-1.7°C 47% 7.6 mph NW12.2 kmh NW 11.2 mph18.0 kmh 29.80 in1009.1 mb 0.00 in0.0 mm 0.00 in0.0 mm 0.00 in0.0 mm
07:27 PM 48.1°F8.9°C 28.1°F-2.2°C 46% 10.6 mph N17.1 kmh N 22.0 mph35.4 kmh 29.80 in1009.1 mb 0.00 in0.0 mm 0.00 in0.0 mm 0.00 in0.0 mm
07:32 PM 47.7°F8.7°C 28.3°F-2.1°C 47% 10.3 mph N16.6 kmh N 22.0 mph35.4 kmh 29.80 in1009.1 mb 0.00 in0.0 mm 0.00 in0.0 mm 0.00 in0.0 mm
07:37 PM 47.2°F8.4°C 27.8°F-2.3°C 47% 10.7 mph N17.2 kmh N 15.2 mph24.5 kmh 29.80 in1009.1 mb 0.00 in0.0 mm 0.00 in0.0 mm 0.00 in0.0 mm
07:42 PM 46.8°F8.2°C 27.5°F-2.5°C 47% 9.5 mph NNW15.3 kmh NNW 16.2 mph26.1 kmh 29.80 in1009.1 mb 0.00 in0.0 mm 0.00 in0.0 mm 0.00 in0.0 mm
07:47 PM 46.5°F8.1°C 27.2°F-2.7°C 47% 11.4 mph NNW18.3 kmh NNW 18.8 mph30.3 kmh 29.80 in1009.1 mb 0.00 in0.0 mm 0.00 in0.0 mm 0.00 in0.0 mm
07:52 PM 46.3°F7.9°C 27.0°F-2.8°C 47% 9.2 mph NNW14.8 kmh NNW 19.6 mph31.5 kmh 29.83 in1010.2 mb 0.00 in0.0 mm 0.00 in0.0 mm 0.00 in0.0 mm
07:57 PM 45.9°F7.7°C 26.6°F-3.0°C 47% 7.6 mph NW12.2 kmh NW 19.6 mph31.5 kmh 29.83 in1010.2 mb 0.00 in0.0 mm 0.00 in0.0 mm 0.00 in0.0 mm
08:03 PM 45.6°F7.6°C 25.8°F-3.4°C 46% 13.1 mph NW21.1 kmh NW 23.8 mph38.3 kmh 29.83 in1010.2 mb 0.00 in0.0 mm 0.00 in0.0 mm 0.00 in0.0 mm
08:08 PM 45.0°F7.2°C 25.3°F-3.7°C 46% 11.5 mph N18.5 kmh N 23.8 mph38.3 kmh 29.85 in1010.8 mb 0.00 in0.0 mm 0.00 in0.0 mm 0.00 in0.0 mm
08:13 PM 44.7°F7.1°C 24.5°F-4.2°C 45% 12.6 mph N20.3 kmh N 24.2 mph38.9 kmh 29.85 in1010.8 mb 0.00 in0.0 mm 0.00 in0.0 mm 0.00 in0.0 mm
08:18 PM 44.1°F6.7°C 23.9°F-4.5°C 45% 10.6 mph N17.1 kmh N 24.2 mph38.9 kmh 29.85 in1010.8 mb 0.00 in0.0 mm 0.00 in0.0 mm 0.00 in0.0 mm
08:23 PM 43.8°F6.6°C 23.6°F-4.7°C 45% 9.8 mph NNW15.8 kmh NNW 17.0 mph27.4 kmh 29.85 in1010.8 mb 0.00 in0.0 mm 0.00 in0.0 mm 0.00 in0.0 mm
08:28 PM 43.6°F6.4°C 23.5°F-4.7°C 45% 7.9 mph NW12.7 kmh NW 20.6 mph33.2 kmh 29.85 in1010.8 mb 0.00 in0.0 mm 0.00 in0.0 mm 0.00 in0.0 mm
08:33 PM 43.2°F6.2°C 22.5°F-5.3°C 44% 9.1 mph NW14.6 kmh NW 20.6 mph33.2 kmh 29.85 in1010.8 mb 0.00 in0.0 mm 0.00 in0.0 mm 0.00 in0.0 mm
08:38 PM 43.1°F6.2°C 23.0°F-5.0°C 45% 10.0 mph NNW16.1 kmh NNW 15.6 mph25.1 kmh 29.88 in1011.9 mb 0.00 in0.0 mm 0.00 in0.0 mm 0.00 in0.0 mm
08:43 PM 42.7°F5.9°C 22.1°F-5.5°C 44% 10.7 mph N17.2 kmh N 22.0 mph35.4 kmh 29.88 in1011.9 mb 0.00 in0.0 mm 0.00 in0.0 mm 0.00 in0.0 mm
08:48 PM 42.7°F5.9°C 22.1°F-5.5°C 44% 8.2 mph NW13.2 kmh NW 28.6 mph46.0 kmh 29.88 in1011.9 mb 0.00 in0.0 mm 0.00 in0.0 mm 0.00 in0.0 mm
08:54 PM 42.3°F5.7°C 21.7°F-5.7°C 44% 9.7 mph NNW15.6 kmh NNW 28.6 mph46.0 kmh 29.88 in1011.9 mb 0.00 in0.0 mm 0.00 in0.0 mm 0.00 in0.0 mm
08:59 PM 42.2°F5.7°C 21.6°F-5.8°C 44% 8.8 mph NNW14.2 kmh NNW 20.2 mph32.5 kmh 29.88 in1011.9 mb 0.00 in0.0 mm 0.00 in0.0 mm 0.00 in0.0 mm
09:05 PM 42.0°F5.6°C 21.4°F-5.9°C 44% 7.0 mph N11.3 kmh N 20.2 mph32.5 kmh 29.88 in1011.9 mb 0.00 in0.0 mm 0.00 in0.0 mm 0.00 in0.0 mm
09:10 PM 41.8°F5.4°C 21.8°F-5.7°C 45% 6.6 mph N10.6 kmh N 12.6 mph20.3 kmh 29.88 in1011.9 mb 0.00 in0.0 mm 0.00 in0.0 mm 0.00 in0.0 mm
09:16 PM 41.6°F5.3°C 21.6°F-5.8°C 45% 7.8 mph NW12.6 kmh NW 12.6 mph20.3 kmh 29.88 in1011.9 mb 0.00 in0.0 mm 0.00 in0.0 mm 0.00 in0.0 mm
09:21 PM 41.4°F5.2°C 21.4°F-5.9°C 45% 6.3 mph NW10.1 kmh NW 12.6 mph20.3 kmh 29.88 in1011.9 mb 0.00 in0.0 mm 0.00 in0.0 mm 0.00 in0.0 mm
09:26 PM 41.3°F5.2°C 20.8°F-6.2°C 44% 9.4 mph N15.1 kmh N 15.6 mph25.1 kmh 29.88 in1011.9 mb 0.00 in0.0 mm 0.00 in0.0 mm 0.00 in0.0 mm
09:31 PM 41.1°F5.1°C 21.2°F-6.0°C 45% 6.5 mph NNW10.5 kmh NNW 15.6 mph25.1 kmh 29.88 in1011.9 mb 0.00 in0.0 mm 0.00 in0.0 mm 0.00 in0.0 mm
09:37 PM 40.7°F4.8°C 20.8°F-6.2°C 45% 6.8 mph N10.9 kmh N 13.4 mph21.6 kmh 29.91 in1012.9 mb 0.00 in0.0 mm 0.00 in0.0 mm 0.00 in0.0 mm
09:42 PM 40.4°F4.7°C 21.1°F-6.1°C 46% 5.8 mph NNW9.3 kmh NNW 12.0 mph19.3 kmh 29.91 in1012.9 mb 0.00 in0.0 mm 0.00 in0.0 mm 0.00 in0.0 mm
09:47 PM 40.4°F4.7°C 21.1°F-6.1°C 46% 6.5 mph NNW10.5 kmh NNW 12.6 mph20.3 kmh 29.91 in1012.9 mb 0.00 in0.0 mm 0.00 in0.0 mm 0.00 in0.0 mm
09:52 PM 40.2°F4.6°C 20.9°F-6.2°C 46% 4.2 mph N6.8 kmh N 12.6 mph20.3 kmh 29.91 in1012.9 mb 0.00 in0.0 mm 0.00 in0.0 mm 0.00 in0.0 mm
09:57 PM 40.2°F4.6°C 21.4°F-5.9°C 47% 4.2 mph NW6.8 kmh NW 9.4 mph15.1 kmh 29.91 in1012.9 mb 0.00 in0.0 mm 0.00 in0.0 mm 0.00 in0.0 mm
10:02 PM 40.2°F4.6°C 21.4°F-5.9°C 47% 4.4 mph NNW7.1 kmh NNW 9.4 mph15.1 kmh 29.91 in1012.9 mb 0.00 in0.0 mm 0.00 in0.0 mm 0.00 in0.0 mm
10:07 PM 40.0°F4.4°C 21.2°F-6.0°C 47% 4.2 mph N6.8 kmh N 8.0 mph12.9 kmh 29.91 in1012.9 mb 0.00 in0.0 mm 0.00 in0.0 mm 0.00 in0.0 mm
10:12 PM 39.8°F4.3°C 21.6°F-5.8°C 48% 4.2 mph NW6.8 kmh NW 8.0 mph12.9 kmh 29.91 in1012.9 mb 0.00 in0.0 mm 0.00 in0.0 mm 0.00 in0.0 mm
10:17 PM 39.6°F4.2°C 21.4°F-5.9°C 48% 5.7 mph N9.2 kmh N 15.6 mph25.1 kmh 29.91 in1012.9 mb 0.00 in0.0 mm 0.00 in0.0 mm 0.00 in0.0 mm
10:22 PM 39.5°F4.2°C 21.3°F-5.9°C 48% 6.8 mph NNW10.9 kmh NNW 15.6 mph25.1 kmh 29.91 in1012.9 mb 0.00 in0.0 mm 0.00 in0.0 mm 0.00 in0.0 mm
10:28 PM 39.3°F4.1°C 20.6°F-6.3°C 47% 5.8 mph NW9.3 kmh NW 10.8 mph17.4 kmh 29.91 in1012.9 mb 0.00 in0.0 mm 0.00 in0.0 mm 0.00 in0.0 mm
10:33 PM 39.1°F3.9°C 20.4°F-6.4°C 47% 7.5 mph NW12.1 kmh NW 17.0 mph27.4 kmh 29.91 in1012.9 mb 0.00 in0.0 mm 0.00 in0.0 mm 0.00 in0.0 mm
10:38 PM 39.1°F3.9°C 20.4°F-6.4°C 47% 6.9 mph NW11.1 kmh NW 22.0 mph35.4 kmh 29.91 in1012.9 mb 0.00 in0.0 mm 0.00 in0.0 mm 0.00 in0.0 mm
10:43 PM 38.9°F3.8°C 20.2°F-6.6°C 47% 8.6 mph N13.8 kmh N 22.0 mph35.4 kmh 29.91 in1012.9 mb 0.00 in0.0 mm 0.00 in0.0 mm 0.00 in0.0 mm
10:48 PM 38.7°F3.7°C 20.5°F-6.4°C 48% 7.6 mph NW12.2 kmh NW 16.2 mph26.1 kmh 29.91 in1012.9 mb 0.00 in0.0 mm 0.00 in0.0 mm 0.00 in0.0 mm
10:53 PM 38.6°F3.7°C 19.9°F-6.7°C 47% 6.9 mph NNW11.1 kmh NNW 14.8 mph23.8 kmh 29.91 in1012.9 mb 0.00 in0.0 mm 0.00 in0.0 mm 0.00 in0.0 mm
10:58 PM 38.4°F3.6°C 19.8°F-6.8°C 47% 5.8 mph N9.3 kmh N 14.8 mph23.8 kmh 29.91 in1012.9 mb 0.00 in0.0 mm 0.00 in0.0 mm 0.00 in0.0 mm
11:03 PM 38.4°F3.6°C 19.8°F-6.8°C 47% 5.9 mph NNW9.5 kmh NNW 9.8 mph15.8 kmh 29.91 in1012.9 mb 0.00 in0.0 mm 0.00 in0.0 mm 0.00 in0.0 mm
11:09 PM 38.2°F3.4°C 19.1°F-7.2°C 46% 8.4 mph N13.5 kmh N 20.2 mph32.5 kmh 29.91 in1012.9 mb 0.00 in0.0 mm 0.00 in0.0 mm 0.00 in0.0 mm
11:14 PM 38.2°F3.4°C 18.5°F-7.5°C 45% 6.8 mph NNW10.9 kmh NNW 24.2 mph38.9 kmh 29.91 in1012.9 mb 0.00 in0.0 mm 0.00 in0.0 mm 0.00 in0.0 mm
11:19 PM 38.2°F3.4°C 18.5°F-7.5°C 45% 7.5 mph N12.1 kmh N 24.2 mph38.9 kmh 29.91 in1012.9 mb 0.00 in0.0 mm 0.00 in0.0 mm 0.00 in0.0 mm
11:24 PM 38.0°F3.3°C 18.3°F-7.6°C 45% 7.7 mph N12.4 kmh N 21.0 mph33.8 kmh 29.91 in1012.9 mb 0.00 in0.0 mm 0.00 in0.0 mm 0.00 in0.0 mm
11:31 PM 37.8°F3.2°C 18.2°F-7.7°C 45% 4.2 mph NNW6.8 kmh NNW 15.2 mph24.5 kmh 29.91 in1012.9 mb 0.00 in0.0 mm 0.00 in0.0 mm 0.00 in0.0 mm
11:36 PM 37.7°F3.2°C 18.1°F-7.7°C 45% 5.7 mph NW9.2 kmh NW 15.2 mph24.5 kmh 29.91 in1012.9 mb 0.00 in0.0 mm 0.00 in0.0 mm 0.00 in0.0 mm
11:41 PM 37.7°F3.2°C 17.5°F-8.1°C 44% 9.4 mph N15.1 kmh N 20.2 mph32.5 kmh 29.91 in1012.9 mb 0.00 in0.0 mm 0.00 in0.0 mm 0.00 in0.0 mm
11:46 PM 37.5°F3.1°C 17.4°F-8.1°C 44% 5.6 mph NW9.0 kmh NW 20.2 mph32.5 kmh 29.91 in1012.9 mb 0.00 in0.0 mm 0.00 in0.0 mm 0.00 in0.0 mm
11:51 PM 37.5°F3.1°C 17.4°F-8.1°C 44% 5.5 mph NW8.9 kmh NW 13.0 mph20.9 kmh 29.91 in1012.9 mb 0.00 in0.0 mm 0.00 in0.0 mm 0.00 in0.0 mm
11:56 PM 37.3°F2.9°C 17.2°F-8.2°C 44% 6.4 mph NW10.3 kmh NW 10.8 mph17.4 kmh 29.91 in1012.9 mb 0.00 in0.0 mm 0.00 in0.0 mm 0.00 in0.0 mm